createdAt,value
2018-12-12T00:01:30.446Z,13.78
2018-12-12T00:02:30.166Z,13.85
2018-12-12T00:04:24.056Z,13.82
2018-12-12T00:05:23.155Z,13.82
2018-12-12T00:07:16.425Z,13.78
2018-12-12T00:08:16.193Z,13.90
2018-12-12T00:10:09.173Z,13.63
2018-12-12T00:11:09.176Z,13.63
2018-12-12T00:14:33.974Z,13.83
2018-12-12T00:15:33.834Z,13.83
2018-12-12T00:17:26.821Z,13.80
2018-12-12T00:18:26.847Z,13.78
2018-12-12T00:20:19.930Z,13.52
2018-12-12T00:21:19.893Z,13.59
2018-12-12T00:23:12.852Z,13.47
2018-12-12T00:24:12.919Z,13.60
2018-12-12T00:26:06.388Z,13.53
2018-12-12T00:27:06.300Z,13.49
2018-12-12T00:28:59.131Z,13.55
2018-12-12T00:29:59.398Z,13.63
2018-12-12T00:33:24.502Z,13.64
2018-12-12T00:34:24.535Z,13.65
2018-12-12T00:36:17.459Z,13.63
2018-12-12T00:37:17.908Z,13.60
2018-12-12T00:40:42.681Z,13.71
2018-12-12T00:41:43.280Z,13.68
2018-12-12T00:43:36.101Z,13.67
2018-12-12T00:44:36.584Z,13.71
2018-12-12T00:46:30.340Z,13.56
2018-12-12T00:47:31.250Z,13.47
2018-12-12T00:49:25.675Z,13.49
2018-12-12T00:50:25.267Z,13.50
2018-12-12T00:52:19.007Z,13.59
2018-12-12T00:53:20.881Z,13.47
2018-12-12T00:55:15.113Z,13.45
2018-12-12T00:56:15.790Z,13.43
2018-12-12T00:58:10.638Z,13.55
2018-12-12T01:00:14.178Z,13.52
2018-12-12T01:01:16.233Z,13.49
2018-12-12T01:03:12.610Z,13.31
